Weather at Hoevenen Airfield

Public forecast

Using degrees Celsius for public forecast. Weather courtesy of forecast.io.

Closest aviation weather report (METAR) to Hoevenen Airfield

Report is more than 6 hours old.

Closest report is Antwerp International Airport (Deurne), 7.5 nm (13.9 km) SSE. Retrieved 2022/09/17 18:50 UTC (18 days ago):

EBAW 171850Z 28009KT 9999 -SHRA FEW040TCU SCT049 12/10 Q1018 TEMPO 32015G25KT 3500 SHRA

Closest aviation forecast (TAF) to Hoevenen Airfield

Forecast is more than 12 hours old.

Closest forecast is Antwerp International Airport (Deurne), 7.5 nm (13.9 km) SSE. Retrieved 2022/05/29 18:27 UTC (4 months ago):

TAF TAF EBAW 291710Z 2918/3006 02006KT 9999 FEW025